Time;durP1;ratioP1;P1;durP2;ratioP2;P2;SDS_P1;SDS_P2;PMS_P1;PMS_P2;Temp;Humidity;BMP_temperature;BMP_pressure;BME280_temperature;BME280_humidity;BME280_pressure;Samples;Min_cycle;Max_cycle;Signal;HPM_P1;HPM_P2
2024/03/22 00:00:39;;;;;;;5.75;4.57;;;11.30;99.90;;;;;;5089905;28;20442;-84
2024/03/22 00:03:05;;;;;;;4.40;4.00;;;;;;;;;;5086259;28;20404;-83
2024/03/22 00:05:31;;;;;;;5.13;4.28;;;;;;;;;;5073843;28;20498;-84
2024/03/22 00:07:57;;;;;;;5.68;4.22;;;;;;;;;;5073986;28;20852;-84
2024/03/22 00:10:23;;;;;;;4.82;4.32;;;;;;;;;;5083091;28;20869;-83
2024/03/22 00:12:50;;;;;;;5.10;4.60;;;;;;;;;;5076197;28;20394;-83
2024/03/22 00:15:16;;;;;;;5.68;4.57;;;;;;;;;;5076717;28;20379;-83
2024/03/22 00:17:43;;;;;;;4.90;4.20;;;11.30;99.90;;;;;;5074708;28;20430;-83
2024/03/22 00:20:09;;;;;;;5.60;4.43;;;;;;;;;;5078162;28;20899;-83
2024/03/22 00:22:35;;;;;;;4.60;4.15;;;10.80;99.90;;;;;;5076673;28;20386;-85
2024/03/22 00:25:00;;;;;;;5.55;4.70;;;10.50;99.90;;;;;;5094273;28;20382;-83
2024/03/22 00:27:26;;;;;;;5.15;4.53;;;;;;;;;;5059569;28;20406;-84
2024/03/22 00:29:52;;;;;;;9.38;4.80;;;11.50;99.90;;;;;;5076370;28;20394;-84
2024/03/22 00:32:17;;;;;;;6.07;4.50;;;;;;;;;;5073527;28;20410;-84
2024/03/22 00:34:43;;;;;;;6.00;4.77;;;10.90;99.90;;;;;;5095009;28;20407;-84
2024/03/22 00:37:09;;;;;;;8.87;5.00;;;10.40;99.90;;;;;;5094829;28;20390;-83
2024/03/22 00:39:35;;;;;;;6.40;4.60;;;;;;;;;;5092188;28;20478;-85
2024/03/22 00:42:01;;;;;;;5.32;4.30;;;;;;;;;;5075269;28;20391;-84
2024/03/22 00:44:27;;;;;;;6.22;4.60;;;10.40;99.90;;;;;;5092001;28;20440;-84
2024/03/22 00:46:53;;;;;;;5.40;4.90;;;;;;;;;;5094600;28;20374;-85
2024/03/22 00:49:19;;;;;;;4.95;4.53;;;;;;;;;;5077261;28;20453;-84
2024/03/22 00:51:44;;;;;;;4.90;4.50;;;10.70;99.90;;;;;;5075369;28;20384;-85
2024/03/22 00:54:10;;;;;;;7.07;4.80;;;10.50;99.90;;;;;;5057507;28;20411;-85
2024/03/22 00:56:36;;;;;;;7.18;4.85;;;;;;;;;;5071367;28;20471;-83
2024/03/22 00:59:02;;;;;;;8.30;4.57;;;;;;;;;;5075094;28;20387;-84
2024/03/22 01:01:28;;;;;;;4.70;4.30;;;10.50;99.90;;;;;;5087095;28;20399;-83
2024/03/22 01:03:54;;;;;;;4.20;3.80;;;;;;;;;;5094567;28;20494;-85
2024/03/22 01:06:24;;;;;;;6.97;4.20;;;10.40;99.90;;;;;;5086646;28;20383;-85
2024/03/22 01:08:51;;;;;;;4.93;4.43;;;;;;;;;;5097160;28;20374;-85
2024/03/22 01:11:17;;;;;;;4.90;4.40;;;;;;;;;;5092302;28;20389;-85
2024/03/22 01:13:43;;;;;;;5.40;4.90;;;;;;;;;;5095714;28;20374;-85
2024/03/22 01:16:09;;;;;;;5.82;4.82;;;10.10;99.90;;;;;;5078175;28;20379;-86
2024/03/22 01:18:35;;;;;;;6.90;4.80;;;;;;;;;;5075033;28;20896;-85
2024/03/22 01:21:01;;;;;;;5.30;4.80;;;;;;;;;;5075827;28;20392;-86
2024/03/22 01:23:27;;;;;;;5.10;4.40;;;;;;;;;;5080513;28;20417;-83
2024/03/22 01:25:53;;;;;;;5.00;4.50;;;10.00;99.90;;;;;;5074512;28;20384;-85
2024/03/22 01:28:19;;;;;;;6.80;4.97;;;;;;;;;;5076304;28;20375;-86
2024/03/22 01:30:44;;;;;;;5.13;4.50;;;10.70;99.90;;;;;;5069819;28;20399;-82
2024/03/22 01:33:10;;;;;;;4.93;4.40;;;10.60;99.90;;;;;;5102181;28;20398;-83
2024/03/22 01:35:36;;;;;;;5.60;4.47;;;;;;;;;;5107564;28;20386;-84
2024/03/22 01:38:01;;;;;;;5.45;4.57;;;10.40;99.90;;;;;;5085820;28;20414;-82
2024/03/22 01:40:27;;;;;;;5.43;4.60;;;10.20;99.90;;;;;;5089513;28;20386;-83
2024/03/22 01:42:56;;;;;;;5.30;4.80;;;;;;;;;;5106016;28;20917;-84
2024/03/22 01:45:24;;;;;;;5.47;4.97;;;10.60;99.90;;;;;;5101851;28;20374;-84
2024/03/22 01:47:50;;;;;;;8.40;5.20;;;;;;;;;;5081534;28;20382;-84
2024/03/22 01:50:15;;;;;;;5.40;4.65;;;9.90;99.90;;;;;;5096321;28;20382;-84
2024/03/22 01:52:41;;;;;;;5.03;4.53;;;;;;;;;;5059992;28;20387;-83
2024/03/22 01:55:08;;;;;;;7.53;4.82;;;;;;;;;;5097191;28;20613;-83
2024/03/22 01:57:34;;;;;;;5.38;4.82;;;;;;;;;;5080534;28;20388;-83
2024/03/22 02:00:00;;;;;;;4.90;4.50;;;;;;;;;;5091238;28;20394;-83
2024/03/22 02:02:26;;;;;;;5.28;4.78;;;10.30;99.90;;;;;;5078314;28;20880;-83
2024/03/22 02:04:51;;;;;;;5.40;4.90;;;10.00;99.90;;;;;;5094180;28;20387;-84
2024/03/22 02:07:17;;;;;;;6.60;5.20;;;10.60;99.90;;;;;;5068771;28;20689;-84
2024/03/22 02:09:43;;;;;;;6.30;4.87;;;10.30;99.90;;;;;;5098015;28;20394;-84
2024/03/22 02:12:09;;;;;;;5.10;4.60;;;10.20;99.90;;;;;;5080405;28;20392;-84
2024/03/22 02:14:35;;;;;;;6.00;4.85;;;;;;;;;;5085610;28;20423;-85
2024/03/22 02:17:00;;;;;;;6.72;4.47;;;10.10;99.90;;;;;;5091562;28;20397;-84
2024/03/22 02:19:26;;;;;;;6.07;4.70;;;;;;;;;;5080846;28;20469;-85
2024/03/22 02:21:52;;;;;;;8.00;5.20;;;;;;;;;;5093895;28;20390;-83
2024/03/22 02:24:18;;;;;;;6.32;4.88;;;10.20;99.90;;;;;;5091061;28;20443;-85
2024/03/22 02:26:44;;;;;;;5.23;4.60;;;;;;;;;;5059494;28;20384;-84
2024/03/22 02:29:09;;;;;;;5.47;4.95;;;;;;;;;;5084670;28;20374;-84
2024/03/22 02:31:35;;;;;;;6.47;4.70;;;10.70;99.90;;;;;;5098031;28;20390;-85
2024/03/22 02:34:01;;;;;;;6.10;5.50;;;;;;;;;;5097112;28;20465;-85
2024/03/22 02:36:27;;;;;;;5.35;4.95;;;;;;;;;;5097870;28;20387;-85
2024/03/22 02:38:53;;;;;;;5.50;4.90;;;;;;;;;;5097689;28;21887;-85
2024/03/22 02:41:18;;;;;;;6.72;5.53;;;10.30;99.90;;;;;;5071280;28;20390;-85
2024/03/22 02:43:44;;;;;;;9.65;5.18;;;;;;;;;;5085356;28;20399;-85
2024/03/22 02:46:10;;;;;;;8.13;5.30;;;;;;;;;;5079042;28;20380;-85
2024/03/22 02:48:36;;;;;;;8.40;5.05;;;9.60;99.90;;;;;;5085769;28;20408;-85
2024/03/22 02:51:01;;;;;;;5.93;4.93;;;9.70;99.90;;;;;;5093306;28;20406;-84
2024/03/22 02:53:27;;;;;;;5.40;4.90;;;9.80;99.90;;;;;;5097051;28;20804;-84
2024/03/22 02:55:53;;;;;;;4.70;4.30;;;;;;;;;;5078378;28;20436;-85
2024/03/22 02:58:21;;;;;;;5.35;4.45;;;9.90;99.90;;;;;;5095593;28;20389;-85
2024/03/22 03:00:47;;;;;;;5.95;5.35;;;9.80;99.90;;;;;;5096162;28;20408;-83
2024/03/22 03:03:13;;;;;;;5.88;4.90;;;;;;;;;;5078830;28;20402;-84
2024/03/22 03:05:38;;;;;;;7.13;5.50;;;10.50;99.90;;;;;;5074772;28;20399;-84
2024/03/22 03:08:04;;;;;;;7.10;4.93;;;10.30;99.90;;;;;;5103350;22;20479;-83
2024/03/22 03:10:30;;;;;;;5.05;4.55;;;;;;;;;;5093043;28;20415;-83
2024/03/22 03:12:56;;;;;;;7.30;4.90;;;10.30;99.90;;;;;;5058443;28;20448;-84
2024/03/22 03:15:21;;;;;;;6.28;4.80;;;9.80;99.90;;;;;;5092171;28;20389;-83
2024/03/22 03:17:47;;;;;;;6.57;5.25;;;9.70;99.90;;;;;;5077883;28;20382;-84
2024/03/22 03:20:13;;;;;;;5.53;5.03;;;9.80;99.90;;;;;;5106943;28;20384;-82
2024/03/22 03:22:42;;;;;;;7.05;4.60;;;10.40;99.90;;;;;;5112790;28;20386;-85
2024/03/22 03:25:08;;;;;;;8.00;5.10;;;;;;;;;;5114380;28;20381;-83
2024/03/22 03:27:34;;;;;;;6.22;5.10;;;9.70;99.90;;;;;;5104059;28;20382;-84
2024/03/22 03:30:00;;;;;;;7.47;5.18;;;9.70;99.90;;;;;;5101750;28;20381;-84
2024/03/22 03:32:27;;;;;;;7.25;5.07;;;10.10;99.90;;;;;;5098485;28;20457;-84
2024/03/22 03:34:52;;;;;;;6.25;5.65;;;10.70;99.90;;;;;;5078521;28;20434;-83
2024/03/22 03:37:18;;;;;;;6.20;5.60;;;9.60;99.90;;;;;;5075515;28;20420;-83
2024/03/22 03:39:43;;;;;;;5.90;5.30;;;10.50;99.90;;;;;;5099122;28;20382;-84
2024/03/22 03:42:09;;;;;;;6.50;5.70;;;;;;;;;;5078816;28;20378;-83
2024/03/22 03:44:35;;;;;;;5.70;5.20;;;10.10;99.90;;;;;;5097400;28;20908;-84
2024/03/22 03:47:02;;;;;;;6.30;5.37;;;10.50;99.90;;;;;;5095336;28;20386;-83
2024/03/22 03:49:27;;;;;;;5.90;5.00;;;10.10;99.90;;;;;;5096672;28;20378;-84
2024/03/22 03:51:53;;;;;;;6.22;5.25;;;;;;;;;;5096494;28;20393;-84
2024/03/22 03:54:19;;;;;;;5.55;4.90;;;9.90;99.90;;;;;;5095756;28;20432;-84
2024/03/22 03:56:44;;;;;;;5.78;4.70;;;10.40;99.90;;;;;;5095065;28;20745;-83
2024/03/22 03:59:10;;;;;;;8.20;6.40;;;;;;;;;;5057790;28;20471;-84
2024/03/22 04:01:36;;;;;;;5.68;5.00;;;;;;;;;;5057266;28;20380;-84
2024/03/22 04:04:03;;;;;;;5.80;5.20;;;10.10;99.90;;;;;;5077642;28;20421;-84
2024/03/22 04:06:29;;;;;;;6.78;5.45;;;;;;;;;;5076804;28;20809;-83
2024/03/22 04:08:54;;;;;;;7.70;5.00;;;9.90;99.90;;;;;;5077767;28;20390;-84
2024/03/22 04:11:19;;;;;;;7.17;5.67;;;9.90;99.90;;;;;;5096037;28;20515;-84
2024/03/22 04:13:47;;;;;;;5.80;5.20;;;;;;;;;;5083186;28;20390;-84
2024/03/22 04:16:12;;;;;;;7.60;4.93;;;9.90;99.90;;;;;;5095771;28;20776;-83
2024/03/22 04:18:38;;;;;;;6.93;5.53;;;9.70;99.90;;;;;;5077878;28;20435;-82
2024/03/22 04:21:04;;;;;;;5.60;5.10;;;10.30;99.90;;;;;;5075603;28;20452;-84
2024/03/22 04:23:30;;;;;;;5.50;4.90;;;;;;;;;;5074934;28;20406;-85
2024/03/22 04:25:58;;;;;;;5.37;4.57;;;9.70;99.90;;;;;;5079941;28;20423;-84
2024/03/22 04:28:24;;;;;;;6.70;5.47;;;9.90;99.90;;;;;;5096606;28;20396;-85
2024/03/22 04:31:01;;;;;;;5.60;5.00;;;9.60;99.90;;;;;;5094977;28;20378;-84
2024/03/22 04:33:28;;;;;;;5.70;5.20;;;9.90;99.90;;;;;;5068044;28;20759;-83
2024/03/22 04:35:54;;;;;;;5.40;4.90;;;9.80;99.90;;;;;;5088579;28;20394;-84
2024/03/22 04:38:20;;;;;;;7.40;5.07;;;9.80;99.90;;;;;;5088030;28;20393;-84
2024/03/22 04:40:45;;;;;;;6.30;5.10;;;10.10;99.90;;;;;;5087975;28;21045;-83
2024/03/22 04:43:11;;;;;;;5.80;5.20;;;10.20;99.90;;;;;;5088768;28;20488;-84
2024/03/22 04:45:37;;;;;;;7.15;5.60;;;;;;;;;;5096587;28;20754;-84
2024/03/22 04:48:04;;;;;;;5.63;5.13;;;10.00;99.90;;;;;;5077796;28;20390;-84
2024/03/22 04:50:30;;;;;;;5.50;5.00;;;;;;;;;;5077776;28;20382;-84
2024/03/22 04:52:56;;;;;;;6.70;5.25;;;9.70;99.90;;;;;;5083752;28;20409;-83
2024/03/22 04:55:22;;;;;;;6.20;5.40;;;;;;;;;;5096131;28;20410;-84
2024/03/22 04:57:48;;;;;;;5.32;4.80;;;;;;;;;;5094840;28;20412;-84
2024/03/22 05:00:14;;;;;;;8.02;5.40;;;10.40;99.90;;;;;;5094139;28;20386;-84
2024/03/22 05:02:40;;;;;;;5.30;4.75;;;9.90;99.90;;;;;;5081494;28;20911;-85
2024/03/22 05:05:07;;;;;;;5.75;4.93;;;10.60;99.90;;;;;;5076500;28;20383;-85
2024/03/22 05:07:33;;;;;;;5.75;5.18;;;10.20;99.90;;;;;;5092743;28;20420;-85
2024/03/22 05:09:58;;;;;;;5.82;4.50;;;10.50;99.90;;;;;;5100379;28;20377;-84
2024/03/22 05:12:24;;;;;;;5.38;4.88;;;;;;;;;;5100257;28;20915;-84
2024/03/22 05:14:50;;;;;;;6.03;5.40;;;10.20;99.90;;;;;;5119995;28;20387;-86
2024/03/22 05:17:15;;;;;;;6.73;5.23;;;10.70;99.90;;;;;;5122186;28;20396;-85
2024/03/22 05:19:41;;;;;;;8.50;5.60;;;9.50;99.90;;;;;;5107991;28;20418;-85
2024/03/22 05:22:07;;;;;;;5.70;5.10;;;;;;;;;;5093688;28;20408;-83
2024/03/22 05:24:32;;;;;;;5.80;5.18;;;10.00;99.90;;;;;;5086163;28;20409;-84
2024/03/22 05:26:59;;;;;;;6.15;4.97;;;10.10;99.90;;;;;;5099201;28;20408;-85
2024/03/22 05:29:27;;;;;;;6.07;5.05;;;9.80;99.90;;;;;;5079074;28;20416;-84
2024/03/22 05:31:53;;;;;;;6.28;4.70;;;10.40;99.90;;;;;;5088120;28;20782;-86
2024/03/22 05:34:18;;;;;;;5.27;4.77;;;9.80;99.90;;;;;;5090154;28;20386;-84
2024/03/22 05:36:45;;;;;;;5.80;5.00;;;9.80;99.90;;;;;;5090156;28;20378;-84
2024/03/22 05:39:12;;;;;;;5.53;5.03;;;;;;;;;;5079956;28;20394;-84
2024/03/22 05:41:38;;;;;;;5.57;4.83;;;9.90;99.90;;;;;;5074468;28;20381;-85
2024/03/22 05:44:04;;;;;;;6.30;4.90;;;;;;;;;;5089087;28;20528;-85
2024/03/22 05:46:30;;;;;;;5.45;4.97;;;9.70;99.90;;;;;;5090217;28;20418;-85
2024/03/22 05:48:56;;;;;;;5.97;5.07;;;;;;;;;;5072931;28;20545;-86
2024/03/22 05:51:22;;;;;;;6.45;5.70;;;9.70;99.90;;;;;;5090021;28;20434;-86
2024/03/22 05:53:47;;;;;;;5.38;4.88;;;10.30;99.90;;;;;;5089200;28;21609;-84
2024/03/22 05:56:14;;;;;;;8.10;5.10;;;;;;;;;;5089838;28;20390;-86
2024/03/22 05:58:40;;;;;;;6.72;5.32;;;;;;;;;;5075033;28;20429;-85
2024/03/22 06:01:05;;;;;;;7.77;4.93;;;9.90;99.90;;;;;;5090367;28;20381;-86
2024/03/22 06:03:31;;;;;;;6.70;5.03;;;;;;;;;;5089898;28;20444;-83
2024/03/22 06:06:00;;;;;;;5.30;4.80;;;10.30;99.90;;;;;;5092290;28;20758;-85
2024/03/22 06:08:26;;;;;;;6.50;5.80;;;9.90;99.90;;;;;;5075592;28;20402;-85
2024/03/22 06:10:53;;;;;;;5.68;4.93;;;9.90;99.90;;;;;;5093119;28;20439;-84
2024/03/22 06:13:18;;;;;;;6.00;5.05;;;9.60;99.90;;;;;;5091818;28;20401;-86
2024/03/22 06:15:47;;;;;;;5.77;5.27;;;;;;;;;;5093876;28;20389;-88
2024/03/22 06:18:12;;;;;;;7.68;5.00;;;9.80;99.90;;;;;;5114820;28;20404;-87
2024/03/22 06:20:38;;;;;;;5.90;5.13;;;10.10;99.90;;;;;;5105648;28;20386;-85
2024/03/22 06:23:04;;;;;;;8.17;5.43;;;;;;;;;;5093642;28;20442;-84
2024/03/22 06:25:29;;;;;;;5.75;5.15;;;10.10;99.90;;;;;;5104027;28;20382;-85
2024/03/22 06:27:55;;;;;;;5.50;5.00;;;10.40;99.90;;;;;;5111007;28;20405;-82
2024/03/22 06:30:21;;;;;;;5.60;5.00;;;;;;;;;;5080994;28;20390;-84
2024/03/22 06:32:46;;;;;;;5.28;4.75;;;9.90;99.90;;;;;;5079414;28;20388;-84
2024/03/22 06:35:12;;;;;;;6.47;5.20;;;;;;;;;;5094852;28;20390;-85
2024/03/22 06:37:40;;;;;;;6.80;5.60;;;10.10;99.90;;;;;;5100228;28;20382;-81
2024/03/22 06:40:07;;;;;;;5.07;4.53;;;9.20;99.90;;;;;;5078448;28;20400;-83
2024/03/22 06:42:33;;;;;;;5.13;4.63;;;;;;;;;;5097164;28;20404;-85
2024/03/22 06:44:59;;;;;;;7.33;4.70;;;;;;;;;;5096453;28;20566;-85
2024/03/22 06:47:24;;;;;;;5.83;5.10;;;10.00;99.90;;;;;;5098007;28;20374;-84
2024/03/22 06:49:50;;;;;;;5.80;5.20;;;;;;;;;;5078467;28;20382;-83
2024/03/22 06:52:18;;;;;;;5.97;5.30;;;9.90;99.90;;;;;;5082835;28;20378;-84
2024/03/22 06:54:43;;;;;;;5.88;5.20;;;10.60;99.90;;;;;;5078024;28;20758;-82
2024/03/22 06:57:09;;;;;;;7.37;5.10;;;10.30;99.90;;;;;;5096376;28;20474;-84
2024/03/22 06:59:34;;;;;;;8.02;5.28;;;10.00;99.90;;;;;;5078097;28;20390;-83
2024/03/22 07:02:00;;;;;;;5.10;4.70;;;10.00;99.90;;;;;;5089738;28;20380;-84
2024/03/22 07:04:25;;;;;;;5.90;4.90;;;10.60;99.90;;;;;;5091054;28;20913;-84
2024/03/22 07:06:51;;;;;;;5.38;4.70;;;10.10;99.90;;;;;;5098809;28;20439;-85
2024/03/22 07:09:16;;;;;;;6.15;4.50;;;10.80;99.90;;;;;;5117772;28;20411;-86
2024/03/22 07:11:42;;;;;;;6.20;5.10;;;11.20;99.90;;;;;;5099170;28;20390;-83
2024/03/22 07:14:08;;;;;;;6.93;5.50;;;10.90;99.90;;;;;;5101730;28;20468;-84
2024/03/22 07:16:33;;;;;;;7.88;4.78;;;11.20;99.90;;;;;;5100717;28;20393;-84
2024/03/22 07:18:59;;;;;;;5.00;4.50;;;11.30;99.90;;;;;;5097755;28;20396;-85
2024/03/22 07:21:24;;;;;;;4.97;4.40;;;11.30;99.90;;;;;;5096870;28;20386;-84
2024/03/22 07:23:50;;;;;;;5.40;4.90;;;;;;;;;;5097824;28;20451;-84
2024/03/22 07:26:16;;;;;;;7.47;4.40;;;11.50;99.90;;;;;;5078825;28;20760;-84
2024/03/22 07:28:41;;;;;;;5.00;4.50;;;11.10;99.90;;;;;;5087497;28;20398;-83
2024/03/22 07:31:07;;;;;;;6.20;4.90;;;;;;;;;;5101026;28;20374;-85
2024/03/22 07:33:33;;;;;;;5.80;4.40;;;11.40;99.90;;;;;;5098659;28;20382;-83
2024/03/22 07:36:03;;;;;;;5.00;4.00;;;11.30;99.90;;;;;;5106458;28;20388;-84
2024/03/22 07:38:28;;;;;;;4.57;4.18;;;11.30;99.90;;;;;;5080887;28;20392;-83
2024/03/22 07:40:54;;;;;;;4.10;3.70;;;12.00;99.90;;;;;;5098888;28;20785;-84
2024/03/22 07:43:20;;;;;;;5.77;4.57;;;11.60;99.90;;;;;;5097882;28;20994;-84
2024/03/22 07:45:45;;;;;;;5.43;3.93;;;11.00;99.90;;;;;;5078937;28;20749;-86
2024/03/22 07:48:11;;;;;;;5.03;3.92;;;12.30;99.90;;;;;;5096851;28;20896;-85
2024/03/22 07:50:36;;;;;;;4.97;4.32;;;11.90;99.90;;;;;;5097301;28;20386;-84
2024/03/22 07:53:02;;;;;;;5.13;4.70;;;12.00;99.90;;;;;;5079087;28;20390;-84
2024/03/22 07:55:28;;;;;;;4.97;4.47;;;12.10;99.90;;;;;;5078974;28;20378;-84
2024/03/22 07:57:54;;;;;;;4.70;4.20;;;;;;;;;;5079089;28;20388;-83
2024/03/22 08:00:19;;;;;;;5.45;4.50;;;12.70;99.90;;;;;;5097041;28;20374;-85
2024/03/22 08:02:45;;;;;;;6.28;4.43;;;12.80;99.90;;;;;;5078578;28;20751;-85
2024/03/22 08:05:10;;;;;;;5.47;4.25;;;12.40;99.90;;;;;;5079030;28;21010;-83
2024/03/22 08:07:36;;;;;;;4.50;4.10;;;12.20;99.90;;;;;;5096695;28;20522;-85
2024/03/22 08:10:02;;;;;;;5.83;4.27;;;;;;;;;;5079010;28;20568;-86
2024/03/22 08:12:28;;;;;;;4.50;3.65;;;13.30;99.90;;;;;;5077700;28;20543;-83
2024/03/22 08:14:54;;;;;;;6.13;4.30;;;13.20;99.90;;;;;;5095489;28;20386;-84
2024/03/22 08:17:19;;;;;;;4.07;3.73;;;13.50;99.90;;;;;;5078463;28;20374;-83
2024/03/22 08:19:45;;;;;;;3.93;3.60;;;13.30;99.90;;;;;;5096898;28;20386;-83
2024/03/22 08:22:11;;;;;;;4.30;3.20;;;13.50;99.90;;;;;;5076907;28;20382;-83
2024/03/22 08:24:37;;;;;;;3.90;3.20;;;13.00;99.90;;;;;;5095908;28;20505;-84
2024/03/22 08:27:03;;;;;;;3.97;2.97;;;13.00;99.90;;;;;;5094922;28;20946;-84
2024/03/22 08:29:29;;;;;;;3.40;3.10;;;13.70;99.90;;;;;;5077914;28;20382;-84
2024/03/22 08:31:55;;;;;;;3.60;3.30;;;;;;;;;;5095591;28;20428;-84
2024/03/22 08:34:21;;;;;;;3.30;3.00;;;13.70;99.90;;;;;;5076854;28;20382;-83
2024/03/22 08:36:47;;;;;;;3.80;3.20;;;14.30;99.90;;;;;;5076957;28;20758;-84
2024/03/22 08:39:12;;;;;;;4.35;3.40;;;13.40;99.90;;;;;;5094685;28;20381;-84
2024/03/22 08:41:38;;;;;;;3.70;2.80;;;14.30;99.90;;;;;;5095216;28;20389;-83
2024/03/22 08:44:03;;;;;;;5.50;3.40;;;14.30;99.90;;;;;;5094911;28;20483;-83
2024/03/22 08:46:29;;;;;;;4.40;3.35;;;13.90;99.90;;;;;;5095617;28;20781;-82
2024/03/22 08:48:54;;;;;;;3.20;2.90;;;14.40;99.90;;;;;;5096373;28;20840;-84
2024/03/22 08:51:21;;;;;;;3.88;3.40;;;14.20;99.90;;;;;;5095240;28;20754;-83
2024/03/22 08:53:47;;;;;;;3.55;3.25;;;16.40;99.90;;;;;;5095215;28;20382;-84
2024/03/22 08:56:12;;;;;;;5.43;3.47;;;14.20;99.90;;;;;;5094785;28;20487;-85
2024/03/22 08:58:38;;;;;;;3.80;3.13;;;14.50;99.90;;;;;;5095264;28;20389;-84
2024/03/22 09:01:04;;;;;;;6.68;3.40;;;14.10;99.90;;;;;;5095044;28;20420;-83
2024/03/22 09:03:30;;;;;;;4.00;3.15;;;14.30;99.90;;;;;;5095231;28;20393;-84
2024/03/22 09:05:56;;;;;;;5.27;3.47;;;15.30;99.90;;;;;;5095142;28;20461;-84
2024/03/22 09:08:22;;;;;;;3.37;2.93;;;15.40;99.90;;;;;;5117829;22;20456;-83
2024/03/22 09:10:48;;;;;;;4.10;3.00;;;14.40;99.90;;;;;;5098544;28;20897;-82
2024/03/22 09:13:14;;;;;;;4.00;2.90;;;;;;;;;;5080105;28;20378;-83
2024/03/22 09:15:40;;;;;;;3.67;2.90;;;15.00;99.90;;;;;;5080263;28;20370;-84
2024/03/22 09:18:06;;;;;;;3.20;2.90;;;15.70;99.90;;;;;;5098330;28;20370;-83
2024/03/22 09:20:32;;;;;;;3.93;3.30;;;15.80;99.90;;;;;;5079931;28;20461;-83
2024/03/22 09:22:57;;;;;;;3.43;3.13;;;15.80;99.90;;;;;;5078708;28;20672;-83
2024/03/22 09:25:27;;;;;;;5.43;3.70;;;15.40;99.90;;;;;;5081188;28;20475;-83
2024/03/22 09:27:52;;;;;;;4.10;3.70;;;15.90;99.90;;;;;;5076695;28;20372;-83
2024/03/22 09:30:18;;;;;;;4.40;3.30;;;15.30;99.90;;;;;;5059153;28;20391;-83
2024/03/22 09:32:43;;;;;;;4.20;3.80;;;15.40;99.90;;;;;;5077030;28;20387;-83
2024/03/22 09:35:09;;;;;;;4.45;4.05;;;15.50;99.90;;;;;;5057964;28;20387;-83
2024/03/22 09:37:36;;;;;;;5.68;3.67;;;16.10;99.90;;;;;;5075221;28;20388;-84
2024/03/22 09:40:07;;;;;;;4.57;3.87;;;16.00;99.90;;;;;;5058799;28;20954;-83
2024/03/22 09:42:34;;;;;;;3.97;3.57;;;16.20;99.90;;;;;;5058249;28;20387;-83
2024/03/22 09:45:00;;;;;;;6.35;3.80;;;16.10;99.90;;;;;;5076018;28;20453;-83
2024/03/22 09:47:27;;;;;;;5.38;4.10;;;15.50;99.90;;;;;;5081133;28;20443;-83
2024/03/22 09:49:53;;;;;;;4.88;3.70;;;16.40;99.90;;;;;;5073706;28;20380;-83
2024/03/22 09:52:20;;;;;;;4.78;4.05;;;16.30;99.90;;;;;;5094737;28;20391;-83
2024/03/22 09:54:46;;;;;;;3.45;3.20;;;16.20;99.90;;;;;;5094664;28;20386;-83
2024/03/22 09:57:15;;;;;;;4.17;3.30;;;15.80;99.90;;;;;;5064052;28;20467;-83
2024/03/22 09:59:42;;;;;;;4.20;3.50;;;;;;;;;;5063304;28;20388;-83
2024/03/22 10:02:11;;;;;;;3.63;3.20;;;16.50;99.90;;;;;;5063387;28;20788;-83
2024/03/22 10:04:36;;;;;;;5.93;3.47;;;16.30;99.90;;;;;;5063429;28;20483;-83
2024/03/22 10:07:03;;;;;;;3.80;3.50;;;16.70;99.90;;;;;;5080868;28;20427;-83
2024/03/22 10:09:32;;;;;;;4.60;4.10;;;16.60;99.90;;;;;;5081205;28;20418;-83
2024/03/22 10:11:58;;;;;;;5.13;3.90;;;15.50;99.90;;;;;;5093634;28;20404;-82
2024/03/22 10:14:25;;;;;;;4.40;3.80;;;16.10;99.90;;;;;;5100312;28;20396;-82
2024/03/22 10:16:54;;;;;;;5.00;3.70;;;16.20;99.90;;;;;;5082996;28;20380;-82
2024/03/22 10:19:20;;;;;;;4.88;3.60;;;16.40;99.90;;;;;;5082610;28;20391;-82
2024/03/22 10:21:47;;;;;;;5.80;3.97;;;16.40;99.90;;;;;;5099884;28;20398;-82
2024/03/22 10:24:14;;;;;;;5.35;3.70;;;18.20;99.90;;;;;;5099555;28;20411;-81
2024/03/22 10:26:39;;;;;;;5.95;4.00;;;16.80;99.90;;;;;;5099626;28;20403;-82
2024/03/22 10:29:09;;;;;;;5.73;4.37;;;16.90;99.90;;;;;;5099785;28;20444;-83
2024/03/22 10:31:35;;;;;;;8.07;4.70;;;16.80;99.90;;;;;;5100051;28;20386;-82
2024/03/22 10:34:03;;;;;;;4.70;4.00;;;16.70;99.90;;;;;;5099909;28;20393;-83
2024/03/22 10:36:30;;;;;;;4.35;3.50;;;16.50;99.90;;;;;;5099423;28;20382;-82
2024/03/22 10:38:58;;;;;;;4.60;4.00;;;17.20;99.90;;;;;;5081905;28;20460;-82
2024/03/22 10:41:24;;;;;;;8.57;3.88;;;17.40;99.90;;;;;;5063017;28;20400;-83
2024/03/22 10:43:50;;;;;;;3.55;3.25;;;;;;;;;;5074570;28;20400;-83
2024/03/22 10:46:17;;;;;;;4.32;3.70;;;;;;;;;;5071483;28;20867;-83
2024/03/22 10:48:44;;;;;;;4.55;3.15;;;17.70;99.90;;;;;;5053394;28;20383;-82
2024/03/22 10:51:10;;;;;;;4.10;3.38;;;18.10;99.90;;;;;;5080057;28;20399;-83
2024/03/22 10:53:36;;;;;;;4.22;3.53;;;;;;;;;;5062363;28;20383;-83
2024/03/22 10:56:04;;;;;;;6.70;3.45;;;17.50;99.90;;;;;;5058536;28;20446;-84
2024/03/22 10:58:29;;;;;;;5.53;3.50;;;17.40;99.90;;;;;;5067255;28;20417;-82
2024/03/22 11:00:56;;;;;;;3.20;3.00;;;18.30;99.90;;;;;;5069552;28;20439;-83
2024/03/22 11:03:24;;;;;;;3.90;3.50;;;17.40;99.90;;;;;;5068580;28;20462;-89
2024/03/22 11:05:54;;;;;;;5.00;3.53;;;17.90;99.90;;;;;;5054848;28;20396;-82
2024/03/22 11:08:30;;;;;;;4.97;3.40;;;18.00;99.90;;;;;;5072592;28;20971;-83
2024/03/22 11:11:11;;;;;;;4.63;3.80;;;17.80;99.90;;;;;;5074762;28;20729;-83
2024/03/22 11:13:39;;;;;;;4.20;3.50;;;18.00;99.90;;;;;;5072743;28;20410;-82
2024/03/22 11:16:05;;;;;;;4.13;3.25;;;;;;;;;;5055993;28;20388;-83
2024/03/22 11:18:30;;;;;;;4.05;3.40;;;19.00;99.90;;;;;;5075818;28;20461;-84
2024/03/22 11:20:57;;;;;;;4.57;3.27;;;18.90;99.90;;;;;;5055571;28;20912;-83
2024/03/22 11:23:22;;;;;;;2.97;2.67;;;18.20;99.90;;;;;;5060790;28;20400;-83
2024/03/22 11:25:48;;;;;;;3.27;2.97;;;;;;;;;;5076182;28;20388;-84
2024/03/22 11:28:14;;;;;;;3.50;2.50;;;18.90;99.90;;;;;;5077570;28;20391;-82
2024/03/22 11:30:40;;;;;;;3.47;2.40;;;18.30;99.90;;;;;;5059203;28;20475;-83
2024/03/22 11:33:06;;;;;;;2.95;2.60;;;;;;;;;;5057995;28;20401;-82
2024/03/22 11:35:33;;;;;;;2.30;2.10;;;19.50;99.90;;;;;;5076340;28;20387;-83
2024/03/22 11:37:58;;;;;;;2.28;2.08;;;20.20;99.90;;;;;;5067572;28;20388;-82
2024/03/22 11:40:26;;;;;;;2.90;2.10;;;19.80;99.90;;;;;;5081721;28;20490;-84
2024/03/22 11:42:54;;;;;;;2.53;2.05;;;20.80;99.90;;;;;;5078251;28;20466;-83
2024/03/22 11:45:50;;;;;;;2.17;1.98;;;;;;;;;;5079852;28;20387;-84
2024/03/22 11:48:16;;;;;;;4.72;1.60;;;;;;;;;;5075968;28;20378;-84
2024/03/22 11:50:41;;;;;;;3.43;1.90;;;21.20;99.90;;;;;;5058258;28;20394;-83
2024/03/22 11:53:08;;;;;;;1.73;1.27;;;21.50;99.90;;;;;;5075659;28;20466;-84
2024/03/22 11:55:36;;;;;;;2.20;1.30;;;;;;;;;;5057384;28;20396;-84
2024/03/22 11:58:02;;;;;;;0.90;0.80;;;22.00;1.00;;;;;;5058319;28;20826;-83
2024/03/22 12:00:28;;;;;;;1.90;0.90;;;21.70;1.00;;;;;;5057561;28;20475;-82
2024/03/22 12:02:54;;;;;;;1.50;0.80;;;22.30;1.00;;;;;;5058947;28;20399;-82
2024/03/22 12:05:21;;;;;;;1.30;1.10;;;21.00;1.00;;;;;;5058283;28;20390;-85
2024/03/22 12:07:47;;;;;;;1.70;1.20;;;;;;;;;;5058543;28;20483;-83
2024/03/22 12:10:13;;;;;;;1.37;1.20;;;21.90;1.00;;;;;;5056399;28;20445;-83
2024/03/22 12:12:39;;;;;;;1.50;1.10;;;22.60;1.00;;;;;;5055824;28;20387;-83
2024/03/22 12:15:05;;;;;;;1.48;1.00;;;;;;;;;;5055964;28;20399;-84
2024/03/22 12:17:31;;;;;;;1.67;0.90;;;22.30;1.00;;;;;;5054079;28;20384;-84
2024/03/22 12:19:57;;;;;;;1.90;1.10;;;22.20;1.00;;;;;;5054172;28;20395;-85
2024/03/22 12:22:25;;;;;;;1.50;1.00;;;;;;;;;;5054264;28;20399;-86
2024/03/22 12:24:51;;;;;;;1.50;1.10;;;22.20;1.00;;;;;;5065028;28;20415;-85
2024/03/22 12:27:17;;;;;;;1.80;1.17;;;;;;;;;;5053029;28;20477;-85
2024/03/22 12:29:43;;;;;;;1.70;1.10;;;22.90;1.00;;;;;;5053747;28;20388;-84
2024/03/22 12:32:10;;;;;;;1.40;0.90;;;;;;;;;;5053429;28;20941;-84
2024/03/22 12:34:36;;;;;;;2.23;1.17;;;;;;;;;;5054592;28;20391;-85
2024/03/22 12:37:02;;;;;;;1.50;1.10;;;;;;;;;;5055033;28;20391;-84
2024/03/22 12:39:28;;;;;;;1.38;1.10;;;21.10;1.00;;;;;;5055200;28;20391;-85
2024/03/22 12:41:54;;;;;;;2.37;1.00;;;;;;;;;;5054726;28;20399;-84
2024/03/22 12:44:20;;;;;;;1.00;0.90;;;21.60;1.00;;;;;;5048904;28;20405;-84
2024/03/22 12:46:46;;;;;;;0.90;0.80;;;22.50;1.00;;;;;;5056739;28;20412;-83
2024/03/22 12:49:12;;;;;;;1.58;0.93;;;;;;;;;;5055687;28;20896;-84
2024/03/22 12:51:38;;;;;;;1.20;1.00;;;23.20;1.00;;;;;;5057825;28;20424;-84
2024/03/22 12:54:04;;;;;;;1.80;0.90;;;;;;;;;;5059259;28;20457;-84
2024/03/22 12:56:48;;;;;;;1.05;0.90;;;23.90;1.00;;;;;;5064452;28;20407;-85
2024/03/22 12:59:14;;;;;;;1.10;0.80;;;;;;;;;;5082179;28;20387;-85
2024/03/22 13:01:39;;;;;;;1.20;0.77;;;23.20;1.00;;;;;;5069965;28;20391;-85
2024/03/22 13:04:06;;;;;;;2.50;1.00;;;;;;;;;;5071243;28;20424;-85
2024/03/22 13:06:34;;;;;;;1.20;0.70;;;;;;;;;;5071879;28;20403;-85
2024/03/22 13:09:00;;;;;;;1.20;0.95;;;21.70;1.00;;;;;;5049704;28;20375;-84
2024/03/22 13:11:26;;;;;;;1.80;0.70;;;;;;;;;;5058925;28;20402;-85
2024/03/22 13:13:53;;;;;;;1.50;0.80;;;21.80;1.00;;;;;;5057758;28;20388;-84
2024/03/22 13:16:19;;;;;;;1.00;0.80;;;;;;;;;;5055648;28;20433;-84